Time,TemperatureF,DewpointF,PressureIn,WindDirection,WindDirectionDegrees,WindSpeedMPH,WindSpeedGustMPH,Humidity,HourlyPrecipIn,Conditions,Clouds,dailyrainin,SoftwareType,DateUTC
2013-01-29 00:00:00,44.2,37.8,30.14,SSE,154,5.2,5.2,78,0.00,,---,0.00,VWS V14.01,2013-01-29 05:00:00,
2013-01-29 00:01:00,44.2,37.8,30.14,SSE,156,3.9,5.2,78,0.00,,---,0.00,VWS V14.01,2013-01-29 05:01:00,
2013-01-29 00:03:00,44.1,37.6,30.14,SSE,150,3.9,4.5,78,0.00,,---,0.00,VWS V14.01,2013-01-29 05:03:00,
2013-01-29 00:08:00,43.9,37.4,30.14,SSE,150,0.0,0.0,78,0.00,,---,0.00,VWS V14.01,2013-01-29 05:08:00,
2013-01-29 00:13:00,43.5,37.1,30.14,SSE,155,0.0,3.2,78,0.00,,---,0.00,VWS V14.01,2013-01-29 05:13:00,
2013-01-29 00:18:00,43.3,36.9,30.14,SSE,155,0.0,0.0,78,0.00,,---,0.00,VWS V14.01,2013-01-29 05:18:00,
2013-01-29 00:24:00,43.3,36.9,30.14,SSE,156,3.2,3.2,78,0.00,,---,0.00,VWS V14.01,2013-01-29 05:24:00,
2013-01-29 00:29:00,43.5,37.1,30.11,SE,140,0.0,3.9,78,0.00,,---,0.00,VWS V14.01,2013-01-29 05:29:00,
2013-01-29 00:34:00,43.5,37.5,30.11,SE,140,0.0,0.0,79,0.00,,---,0.00,VWS V14.01,2013-01-29 05:34:00,
2013-01-29 00:39:00,43.5,37.1,30.11,SE,140,0.0,0.0,78,0.00,,---,0.00,VWS V14.01,2013-01-29 05:39:00,
2013-01-29 00:44:00,43.2,36.7,30.11,SE,140,0.0,0.0,78,0.00,,---,0.00,VWS V14.01,2013-01-29 05:44:00,
2013-01-29 00:49:00,42.8,36.4,30.11,North,1,5.2,5.8,78,0.00,,---,0.00,VWS V14.01,2013-01-29 05:49:00,
2013-01-29 00:55:00,43.0,37.0,30.11,NNE,13,3.2,3.2,79,0.00,,---,0.00,VWS V14.01,2013-01-29 05:55:00,
2013-01-29 01:00:00,43.3,37.3,30.11,NNE,29,0.0,0.0,79,0.00,,---,0.00,VWS V14.01,2013-01-29 06:00:00,
2013-01-29 01:05:00,43.0,37.0,30.11,NE,43,0.0,0.0,79,0.00,,---,0.00,VWS V14.01,2013-01-29 06:05:00,
2013-01-29 01:10:00,43.0,37.0,30.11,SE,135,0.0,3.9,79,0.00,,---,0.00,VWS V14.01,2013-01-29 06:10:00,
2013-01-29 01:15:00,42.8,36.8,30.11,SE,130,0.0,0.0,79,0.00,,---,0.00,VWS V14.01,2013-01-29 06:15:00,
2013-01-29 01:20:00,42.6,36.7,30.11,SE,145,3.2,3.2,79,0.00,,---,0.00,VWS V14.01,2013-01-29 06:20:00,
2013-01-29 01:26:00,42.6,37.1,30.11,SSE,150,3.9,3.9,81,0.00,,---,0.00,VWS V14.01,2013-01-29 06:26:00,
2013-01-29 01:31:00,42.6,37.1,30.11,SE,145,0.0,0.0,81,0.00,,---,0.00,VWS V14.01,2013-01-29 06:31:00,
2013-01-29 01:36:00,42.4,36.9,30.11,SE,145,0.0,0.0,81,0.00,,---,0.00,VWS V14.01,2013-01-29 06:36:00,
2013-01-29 01:41:00,42.3,36.7,30.11,ENE,76,0.0,0.0,81,0.00,,---,0.00,VWS V14.01,2013-01-29 06:41:00,
2013-01-29 01:46:00,42.3,36.7,30.11,ESE,113,0.0,0.0,81,0.00,,---,0.00,VWS V14.01,2013-01-29 06:46:00,
2013-01-29 01:51:00,42.3,37.2,30.11,ESE,113,0.0,0.0,82,0.00,,---,0.00,VWS V14.01,2013-01-29 06:51:00,
2013-01-29 01:56:00,42.4,37.3,30.11,SE,125,5.2,5.2,82,0.00,,---,0.00,VWS V14.01,2013-01-29 06:56:00,
2013-01-29 02:01:00,42.6,37.5,30.11,SE,136,3.2,3.2,82,0.00,,---,0.00,VWS V14.01,2013-01-29 07:01:00,
2013-01-29 02:07:00,42.8,37.7,30.11,SE,124,0.0,0.0,82,0.00,,---,0.00,VWS V14.01,2013-01-29 07:07:00,
2013-01-29 02:12:00,43.0,37.9,30.11,SE,124,0.0,0.0,82,0.00,,---,0.00,VWS V14.01,2013-01-29 07:12:00,
2013-01-29 02:17:00,43.0,37.9,30.11,SE,124,0.0,0.0,82,0.00,,---,0.00,VWS V14.01,2013-01-29 07:17:00,
2013-01-29 02:22:00,42.8,37.7,30.11,NE,34,0.0,3.9,82,0.00,,---,0.00,VWS V14.01,2013-01-29 07:22:00,
2013-01-29 02:27:00,43.0,37.9,30.11,North,350,0.0,0.0,82,0.00,,---,0.00,VWS V14.01,2013-01-29 07:27:00,
2013-01-29 02:32:00,43.2,38.5,30.11,ENE,62,0.0,3.2,83,0.00,,---,0.00,VWS V14.01,2013-01-29 07:32:00,
2013-01-29 02:37:00,43.3,38.7,30.11,SE,137,0.0,0.0,83,0.00,,---,0.00,VWS V14.01,2013-01-29 07:37:00,
2013-01-29 02:43:00,43.5,38.8,30.11,ESE,114,0.0,0.0,83,0.00,,---,0.00,VWS V14.01,2013-01-29 07:43:00,
2013-01-29 02:48:00,43.9,39.2,30.11,NNW,331,3.2,3.2,83,0.00,,---,0.00,VWS V14.01,2013-01-29 07:48:00,
2013-01-29 02:53:00,44.1,39.4,30.11,North,11,0.0,0.0,83,0.00,,---,0.00,VWS V14.01,2013-01-29 07:53:00,
2013-01-29 02:58:00,44.2,40.0,30.11,North,11,0.0,0.0,85,0.00,,---,0.00,VWS V14.01,2013-01-29 07:58:00,
2013-01-29 03:03:00,44.6,39.9,30.11,NNE,28,0.0,3.9,83,0.00,,---,0.00,VWS V14.01,2013-01-29 08:03:00,
2013-01-29 03:08:00,44.6,39.9,30.11,NE,45,0.0,0.0,83,0.00,,---,0.00,VWS V14.01,2013-01-29 08:08:00,
2013-01-29 03:14:00,44.4,39.7,30.11,NE,41,0.0,0.0,83,0.00,,---,0.00,VWS V14.01,2013-01-29 08:14:00,
2013-01-29 03:19:00,43.9,39.2,30.11,NNE,16,3.9,3.9,83,0.00,,---,0.00,VWS V14.01,2013-01-29 08:19:00,
2013-01-29 03:24:00,43.7,39.0,30.11,North,1,5.2,5.2,83,0.00,,---,0.00,VWS V14.01,2013-01-29 08:24:00,
2013-01-29 03:29:00,43.5,38.8,30.11,North,6,0.0,0.0,83,0.00,,---,0.00,VWS V14.01,2013-01-29 08:29:00,
2013-01-29 03:34:00,43.3,38.7,30.11,North,8,3.2,3.9,83,0.00,,---,0.00,VWS V14.01,2013-01-29 08:34:00,
2013-01-29 03:39:00,43.3,39.1,30.11,NNW,341,0.0,3.9,85,0.00,,---,0.00,VWS V14.01,2013-01-29 08:39:00,
2013-01-29 03:44:00,43.5,39.2,30.11,North,353,0.0,0.0,85,0.00,,---,0.00,VWS V14.01,2013-01-29 08:44:00,
2013-01-29 03:50:00,43.5,39.2,30.11,North,353,0.0,0.0,85,0.00,,---,0.00,VWS V14.01,2013-01-29 08:50:00,
2013-01-29 03:55:00,43.3,39.1,30.11,SE,139,5.2,5.2,85,0.00,,---,0.00,VWS V14.01,2013-01-29 08:55:00,
2013-01-29 04:00:00,43.0,38.7,30.11,SSE,149,4.5,4.5,85,0.00,,---,0.00,VWS V14.01,2013-01-29 09:00:00,
2013-01-29 04:05:00,42.6,38.4,30.11,SE,144,3.9,6.5,85,0.00,,---,0.00,VWS V14.01,2013-01-29 09:05:00,
2013-01-29 04:10:00,42.4,38.2,30.11,SE,141,5.2,5.2,85,0.00,,---,0.00,VWS V14.01,2013-01-29 09:10:00,
2013-01-29 04:15:00,42.3,38.0,30.11,SE,141,3.9,3.9,85,0.00,,---,0.00,VWS V14.01,2013-01-29 09:15:00,
2013-01-29 04:21:00,42.1,37.8,30.11,SE,141,0.0,0.0,85,0.00,,---,0.00,VWS V14.01,2013-01-29 09:21:00,
2013-01-29 04:26:00,41.9,37.7,30.11,SE,141,0.0,0.0,85,0.00,,---,0.00,VWS V14.01,2013-01-29 09:26:00,
2013-01-29 04:31:00,41.7,37.5,30.11,SE,141,0.0,0.0,85,0.00,,---,0.00,VWS V14.01,2013-01-29 09:31:00,
2013-01-29 04:36:00,41.5,37.7,30.11,SE,124,4.5,4.5,86,0.00,,---,0.00,VWS V14.01,2013-01-29 09:36:00,
2013-01-29 04:41:00,41.4,37.5,30.11,SE,130,3.2,4.5,86,0.00,,---,0.00,VWS V14.01,2013-01-29 09:41:00,
2013-01-29 04:46:00,41.2,37.4,30.11,SE,142,3.2,4.5,86,0.00,,---,0.00,VWS V14.01,2013-01-29 09:46:00,
2013-01-29 04:51:00,41.2,37.4,30.11,ESE,112,5.2,5.2,86,0.00,,---,0.00,VWS V14.01,2013-01-29 09:51:00,
2013-01-29 04:56:00,40.8,37.0,30.11,SSE,168,0.0,0.0,86,0.00,,---,0.00,VWS V14.01,2013-01-29 09:56:00,
2013-01-29 05:02:00,40.8,37.4,30.11,SSE,153,3.9,4.5,88,0.00,,---,0.00,VWS V14.01,2013-01-29 10:02:00,
2013-01-29 05:07:00,41.0,37.2,30.11,SE,142,0.0,4.5,86,0.00,,---,0.00,VWS V14.01,2013-01-29 10:07:00,
2013-01-29 05:12:00,41.2,37.8,30.11,SE,144,4.5,4.5,88,0.00,,---,0.00,VWS V14.01,2013-01-29 10:12:00,
2013-01-29 05:17:00,41.2,37.8,30.11,SE,130,6.5,7.1,88,0.00,,---,0.00,VWS V14.01,2013-01-29 10:17:00,
2013-01-29 05:22:00,41.4,38.0,30.11,SE,131,5.8,5.8,88,0.00,,---,0.00,VWS V14.01,2013-01-29 10:22:00,
2013-01-29 05:27:00,41.4,38.0,30.11,South,169,3.9,4.5,88,0.00,,---,0.00,VWS V14.01,2013-01-29 10:27:00,
2013-01-29 05:32:00,41.4,38.0,30.11,NNW,338,0.0,3.2,88,0.00,,---,0.00,VWS V14.01,2013-01-29 10:32:00,
2013-01-29 05:37:00,41.2,37.8,30.11,SE,126,7.8,7.8,88,0.00,,---,0.00,VWS V14.01,2013-01-29 10:37:00,
2013-01-29 05:43:00,41.4,38.0,30.11,SW,227,0.0,0.0,88,0.00,,---,0.00,VWS V14.01,2013-01-29 10:43:00,
2013-01-29 05:48:00,41.5,38.5,30.11,NNW,327,0.0,3.9,89,0.00,,---,0.00,VWS V14.01,2013-01-29 10:48:00,
2013-01-29 05:53:00,41.7,38.7,30.11,SE,137,5.8,6.5,89,0.00,,---,0.00,VWS V14.01,2013-01-29 10:53:00,
2013-01-29 05:58:00,42.1,39.1,30.11,ESE,111,3.2,3.2,89,0.00,,---,0.00,VWS V14.01,2013-01-29 10:58:00,
2013-01-29 06:03:00,42.1,39.1,30.11,ESE,116,0.0,0.0,89,0.00,,---,0.00,VWS V14.01,2013-01-29 11:03:00,
2013-01-29 06:08:00,42.1,39.1,30.11,SSE,167,3.2,3.2,89,0.00,,---,0.00,VWS V14.01,2013-01-29 11:08:00,
2013-01-29 06:13:00,42.1,39.1,30.11,SSW,193,3.9,4.5,89,0.00,,---,0.00,VWS V14.01,2013-01-29 11:13:00,
2013-01-29 06:18:00,42.1,39.1,30.11,SSE,147,0.0,0.0,89,0.00,,---,0.00,VWS V14.01,2013-01-29 11:18:00,
2013-01-29 06:23:00,41.9,38.9,30.11,SE,131,3.9,3.9,89,0.00,,---,0.00,VWS V14.01,2013-01-29 11:23:00,
2013-01-29 06:28:00,42.1,39.1,30.11,SSE,154,3.9,3.9,89,0.00,,---,0.00,VWS V14.01,2013-01-29 11:28:00,
2013-01-29 06:34:00,42.1,39.1,30.11,SE,141,4.5,4.5,89,0.00,,---,0.00,VWS V14.01,2013-01-29 11:34:00,
2013-01-29 06:39:00,42.1,39.1,30.11,SSE,149,0.0,0.0,89,0.00,,---,0.00,VWS V14.01,2013-01-29 11:39:00,
2013-01-29 06:44:00,41.4,38.0,30.11,SSE,149,0.0,0.0,88,0.00,,---,0.00,VWS V14.01,2013-01-29 11:44:00,
2013-01-29 06:49:00,40.8,37.8,30.11,SSE,149,0.0,0.0,89,0.00,,---,0.00,VWS V14.01,2013-01-29 11:49:00,
2013-01-29 06:54:00,40.6,37.7,30.11,SSE,156,0.0,0.0,89,0.00,,---,0.00,VWS V14.01,2013-01-29 11:54:00,
2013-01-29 06:59:00,40.6,37.7,30.11,SSE,156,0.0,0.0,89,0.00,,---,0.00,VWS V14.01,2013-01-29 11:59:00,
2013-01-29 07:04:00,40.5,37.5,30.11,SSE,156,0.0,0.0,89,0.00,,---,0.00,VWS V14.01,2013-01-29 12:04:00,
2013-01-29 07:10:00,40.3,37.3,30.11,SSE,156,3.2,3.2,89,0.00,,---,0.00,VWS V14.01,2013-01-29 12:10:00,
2013-01-29 07:15:00,40.1,37.1,30.14,SSE,155,0.0,0.0,89,0.00,,---,0.00,VWS V14.01,2013-01-29 12:15:00,
2013-01-29 07:20:00,40.1,37.5,30.14,SSE,155,0.0,0.0,90,0.00,,---,0.00,VWS V14.01,2013-01-29 12:20:00,
2013-01-29 07:25:00,40.1,37.5,30.14,SSE,155,0.0,0.0,90,0.00,,---,0.00,VWS V14.01,2013-01-29 12:25:00,
2013-01-29 07:30:00,40.3,37.7,30.14,ESE,120,3.2,3.2,90,0.00,,---,0.00,VWS V14.01,2013-01-29 12:30:00,
2013-01-29 07:35:00,40.5,37.9,30.14,SE,145,5.8,5.8,90,0.00,,---,0.00,VWS V14.01,2013-01-29 12:35:00,
2013-01-29 07:41:00,40.6,38.4,30.14,SSE,147,5.2,5.2,92,0.00,,---,0.00,VWS V14.01,2013-01-29 12:41:00,
2013-01-29 07:46:00,40.8,38.2,30.14,SE,142,4.5,5.2,90,0.00,,---,0.00,VWS V14.01,2013-01-29 12:46:00,
2013-01-29 07:51:00,40.8,38.2,30.14,SSE,162,3.9,3.9,90,0.00,,---,0.00,VWS V14.01,2013-01-29 12:51:00,
2013-01-29 07:56:00,40.8,38.6,30.14,SSE,147,5.2,5.2,92,0.00,,---,0.00,VWS V14.01,2013-01-29 12:56:00,
2013-01-29 08:01:00,41.0,38.8,30.14,SSE,154,0.0,5.2,92,0.00,,---,0.00,VWS V14.01,2013-01-29 13:01:00,
2013-01-29 08:06:00,41.5,39.3,30.14,SSE,148,3.9,3.9,92,0.00,,---,0.00,VWS V14.01,2013-01-29 13:06:00,
2013-01-29 08:12:00,42.1,40.2,30.14,SSE,150,3.9,3.9,93,0.00,,---,0.00,VWS V14.01,2013-01-29 13:12:00,
2013-01-29 08:17:00,42.1,39.9,30.14,SSE,150,0.0,0.0,92,0.00,,---,0.00,VWS V14.01,2013-01-29 13:17:00,
2013-01-29 08:22:00,41.9,39.7,30.14,SSE,147,4.5,4.5,92,0.00,,---,0.00,VWS V14.01,2013-01-29 13:22:00,
2013-01-29 08:27:00,42.1,39.9,30.14,SSE,147,0.0,0.0,92,0.00,,---,0.00,VWS V14.01,2013-01-29 13:27:00,
2013-01-29 08:32:00,42.4,40.6,30.14,SE,141,3.9,5.2,93,0.00,,---,0.00,VWS V14.01,2013-01-29 13:32:00,
2013-01-29 08:37:00,42.6,40.8,30.14,SE,130,5.8,5.8,93,0.00,,---,0.00,VWS V14.01,2013-01-29 13:37:00,
2013-01-29 08:42:00,43.2,41.3,30.14,SE,141,0.0,0.0,93,0.00,,---,0.00,VWS V14.01,2013-01-29 13:42:00,
2013-01-29 08:47:00,43.7,41.8,30.14,SE,129,0.0,3.2,93,0.00,,---,0.00,VWS V14.01,2013-01-29 13:47:00,
2013-01-29 08:53:00,44.2,42.8,30.14,SW,227,0.0,0.0,95,0.00,,---,0.00,VWS V14.01,2013-01-29 13:53:00,
2013-01-29 08:58:00,45.3,43.8,30.14,SSE,157,3.2,4.5,95,0.00,,---,0.00,VWS V14.01,2013-01-29 13:58:00,
2013-01-29 09:03:00,46.0,44.6,30.14,SSE,148,3.9,3.9,95,0.00,,---,0.00,VWS V14.01,2013-01-29 14:03:00,
2013-01-29 09:08:00,46.8,45.3,30.14,SSE,154,0.0,0.0,95,0.00,,---,0.00,VWS V14.01,2013-01-29 14:08:00,
2013-01-29 09:13:00,47.5,46.0,30.14,West,263,0.0,0.0,95,0.00,,---,0.00,VWS V14.01,2013-01-29 14:13:00,
2013-01-29 09:18:00,48.6,47.1,30.14,WSW,246,0.0,0.0,95,0.00,,---,0.00,VWS V14.01,2013-01-29 14:18:00,
2013-01-29 09:23:00,49.8,48.7,30.14,WSW,245,0.0,0.0,96,0.00,,---,0.00,VWS V14.01,2013-01-29 14:23:00,
2013-01-29 09:29:00,50.7,49.6,30.14,WNW,291,0.0,0.0,96,0.00,,---,0.00,VWS V14.01,2013-01-29 14:29:00,
2013-01-29 09:34:00,51.6,50.5,30.14,WSW,243,0.0,0.0,96,0.00,,---,0.00,VWS V14.01,2013-01-29 14:34:00,
2013-01-29 09:39:00,52.3,51.2,30.14,WSW,237,0.0,0.0,96,0.00,,---,0.00,VWS V14.01,2013-01-29 14:39:00,
2013-01-29 09:44:00,52.9,51.8,30.14,WSW,250,0.0,0.0,96,0.00,,---,0.00,VWS V14.01,2013-01-29 14:44:00,
2013-01-29 09:49:00,53.4,52.3,30.14,NW,313,4.5,5.2,96,0.00,,---,0.00,VWS V14.01,2013-01-29 14:49:00,
2013-01-29 09:54:00,53.8,52.6,30.14,WSW,247,5.2,5.2,96,0.00,,---,0.00,VWS V14.01,2013-01-29 14:54:00,
2013-01-29 09:59:00,54.1,53.0,30.14,West,259,0.0,0.0,96,0.00,,---,0.00,VWS V14.01,2013-01-29 14:59:00,
2013-01-29 10:05:00,54.5,53.4,30.14,SSW,208,0.0,0.0,96,0.00,,---,0.00,VWS V14.01,2013-01-29 15:05:00,
2013-01-29 10:10:00,55.0,54.3,30.14,SSW,199,7.8,7.8,97,0.00,,---,0.00,VWS V14.01,2013-01-29 15:10:00,
2013-01-29 10:15:00,55.6,54.4,30.14,West,266,0.0,4.5,96,0.00,,---,0.00,VWS V14.01,2013-01-29 15:15:00,
2013-01-29 10:20:00,56.1,55.4,30.14,WNW,283,0.0,0.0,97,0.00,,---,0.00,VWS V14.01,2013-01-29 15:20:00,
2013-01-29 10:25:00,56.7,55.9,30.14,WNW,285,0.0,0.0,97,0.00,,---,0.00,VWS V14.01,2013-01-29 15:25:00,
2013-01-29 10:30:00,57.2,56.4,30.14,North,353,0.0,0.0,97,0.00,,---,0.00,VWS V14.01,2013-01-29 15:30:00,
2013-01-29 10:35:00,57.6,56.4,30.14,West,271,7.8,7.8,96,0.00,,---,0.00,VWS V14.01,2013-01-29 15:35:00,
2013-01-29 10:40:00,57.9,56.0,30.14,SW,217,0.0,3.9,93,0.00,,---,0.00,VWS V14.01,2013-01-29 15:40:00,
2013-01-29 10:46:00,58.5,56.5,30.14,WSW,252,8.4,8.4,93,0.00,,---,0.00,VWS V14.01,2013-01-29 15:46:00,
2013-01-29 10:51:00,59.2,57.2,30.14,NW,311,7.1,7.8,93,0.00,,---,0.00,VWS V14.01,2013-01-29 15:51:00,
2013-01-29 10:56:00,59.5,57.1,30.14,SW,230,0.0,5.2,92,0.00,,---,0.00,VWS V14.01,2013-01-29 15:56:00,
2013-01-29 11:01:00,60.1,57.7,30.14,SSW,211,5.2,7.8,92,0.00,,---,0.00,VWS V14.01,2013-01-29 16:01:00,
2013-01-29 11:06:00,60.3,57.0,30.14,WSW,253,3.2,11.0,89,0.00,,---,0.00,VWS V14.01,2013-01-29 16:06:00,
2013-01-29 11:11:00,60.4,56.7,30.14,WNW,289,3.9,7.8,88,0.00,,---,0.00,VWS V14.01,2013-01-29 16:11:00,
2013-01-29 11:17:00,60.6,56.9,30.14,WSW,256,5.2,5.2,88,0.00,,---,0.00,VWS V14.01,2013-01-29 16:17:00,
2013-01-29 11:22:00,61.0,56.4,30.14,SSW,207,7.1,7.1,85,0.00,,---,0.00,VWS V14.01,2013-01-29 16:22:00,
2013-01-29 11:27:00,61.2,56.5,30.14,West,263,7.1,11.7,85,0.00,,---,0.00,VWS V14.01,2013-01-29 16:27:00,
2013-01-29 11:32:00,61.3,55.8,30.14,SSW,199,7.8,12.6,82,0.00,,---,0.00,VWS V14.01,2013-01-29 16:32:00,
2013-01-29 11:37:00,61.7,55.7,30.14,SW,221,4.5,9.1,81,0.00,,---,0.00,VWS V14.01,2013-01-29 16:37:00,
2013-01-29 11:42:00,62.1,55.6,30.14,West,281,7.1,8.4,79,0.00,,---,0.00,VWS V14.01,2013-01-29 16:42:00,
2013-01-29 11:47:00,62.6,56.6,30.14,SSW,200,0.0,5.8,81,0.00,,---,0.00,VWS V14.01,2013-01-29 16:47:00,
2013-01-29 11:52:00,62.8,55.8,30.14,SSW,199,5.8,5.8,78,0.00,,---,0.00,VWS V14.01,2013-01-29 16:52:00,
2013-01-29 11:57:00,62.6,54.6,30.11,SW,222,5.8,5.8,75,0.00,,---,0.00,VWS V14.01,2013-01-29 16:57:00,
2013-01-29 12:02:00,62.8,54.8,30.11,NNW,329,4.5,4.5,75,0.00,,---,0.00,VWS V14.01,2013-01-29 17:02:00,
2013-01-29 12:08:00,63.0,54.9,30.11,WSW,244,7.8,8.4,75,0.00,,---,0.00,VWS V14.01,2013-01-29 17:08:00,
2013-01-29 12:13:00,63.3,54.8,30.11,West,260,5.8,7.1,74,0.00,,---,0.00,VWS V14.01,2013-01-29 17:13:00,
2013-01-29 12:18:00,63.5,53.4,30.11,WSW,239,9.1,9.1,70,0.00,,---,0.00,VWS V14.01,2013-01-29 17:18:00,
2013-01-29 12:23:00,63.9,53.7,30.11,WSW,247,4.5,7.8,70,0.00,,---,0.00,VWS V14.01,2013-01-29 17:23:00,
2013-01-29 12:28:00,64.0,52.8,30.11,West,260,9.7,9.7,67,0.00,,---,0.00,VWS V14.01,2013-01-29 17:28:00,
2013-01-29 12:33:00,64.2,52.4,30.11,SW,223,11.7,11.7,65,0.00,,---,0.00,VWS V14.01,2013-01-29 17:33:00,
2013-01-29 12:39:00,64.6,53.3,30.11,WSW,254,4.5,7.8,67,0.00,,---,0.00,VWS V14.01,2013-01-29 17:39:00,
2013-01-29 12:44:00,64.8,51.1,30.08,SSW,193,11.0,11.0,61,0.00,,---,0.00,VWS V14.01,2013-01-29 17:44:00,
2013-01-29 12:49:00,65.1,52.0,30.08,WSW,255,4.5,7.1,63,0.00,,---,0.00,VWS V14.01,2013-01-29 17:49:00,
2013-01-29 12:54:00,65.3,52.2,30.08,WSW,255,0.0,5.8,63,0.00,,---,0.00,VWS V14.01,2013-01-29 17:54:00,
2013-01-29 12:59:00,65.7,51.3,30.08,North,3,0.0,4.5,60,0.00,,---,0.00,VWS V14.01,2013-01-29 17:59:00,
2013-01-29 13:04:00,65.7,51.9,30.08,WSW,249,0.0,0.0,61,0.00,,---,0.00,VWS V14.01,2013-01-29 18:04:00,
2013-01-29 13:09:00,65.8,52.1,30.08,WSW,250,0.0,0.0,61,0.00,,---,0.00,VWS V14.01,2013-01-29 18:09:00,
2013-01-29 13:14:00,66.0,52.3,30.05,WSW,246,0.0,0.0,61,0.00,,---,0.00,VWS V14.01,2013-01-29 18:14:00,
2013-01-29 13:19:00,66.4,51.3,30.05,WSW,238,7.1,7.1,58,0.00,,---,0.00,VWS V14.01,2013-01-29 18:19:00,
2013-01-29 13:24:00,66.6,51.5,30.05,West,275,3.9,5.8,58,0.00,,---,0.00,VWS V14.01,2013-01-29 18:24:00,
2013-01-29 13:29:00,66.7,49.7,30.08,West,276,5.8,5.8,54,0.00,,---,0.00,VWS V14.01,2013-01-29 18:29:00,
2013-01-29 13:34:00,66.9,50.5,30.08,SW,229,4.5,11.0,56,0.00,,---,0.00,VWS V14.01,2013-01-29 18:34:00,
2013-01-29 13:39:00,67.3,50.2,30.08,North,353,3.9,3.9,54,0.00,,---,0.00,VWS V14.01,2013-01-29 18:39:00,
2013-01-29 13:44:00,67.1,48.6,30.08,West,274,7.8,7.8,51,0.00,,---,0.00,VWS V14.01,2013-01-29 18:44:00,
2013-01-29 13:50:00,67.1,49.3,30.08,SW,222,9.1,9.1,53,0.00,,---,0.00,VWS V14.01,2013-01-29 18:50:00,
2013-01-29 13:55:00,67.3,49.5,30.08,WSW,245,3.9,5.8,53,0.00,,---,0.00,VWS V14.01,2013-01-29 18:55:00,
2013-01-29 14:00:00,67.6,49.1,30.05,NE,54,3.9,8.4,51,0.00,,---,0.00,VWS V14.01,2013-01-29 19:00:00,
2013-01-29 14:05:00,67.8,48.5,30.05,NNW,331,4.5,8.4,50,0.00,,---,0.00,VWS V14.01,2013-01-29 19:05:00,
2013-01-29 14:10:00,68.0,48.7,30.05,WSW,242,4.5,9.1,50,0.00,,---,0.00,VWS V14.01,2013-01-29 19:10:00,
2013-01-29 14:15:00,68.2,48.9,30.05,WSW,246,5.8,5.8,50,0.00,,---,0.00,VWS V14.01,2013-01-29 19:15:00,
2013-01-29 14:20:00,68.4,49.0,30.05,West,265,0.0,3.2,50,0.00,,---,0.00,VWS V14.01,2013-01-29 19:20:00,
2013-01-29 14:25:00,68.5,49.2,30.05,NW,311,0.0,0.0,50,0.00,,---,0.00,VWS V14.01,2013-01-29 19:25:00,
2013-01-29 14:31:00,68.9,49.5,30.05,WNW,299,0.0,3.2,50,0.00,,---,0.00,VWS V14.01,2013-01-29 19:31:00,
2013-01-29 14:36:00,69.1,49.7,30.05,SW,225,7.8,7.8,50,0.00,,---,0.00,VWS V14.01,2013-01-29 19:36:00,
2013-01-29 14:41:00,69.3,49.1,30.05,WNW,290,0.0,5.8,49,0.00,,---,0.00,VWS V14.01,2013-01-29 19:41:00,
2013-01-29 14:46:00,69.4,49.3,30.05,WSW,241,3.2,5.2,49,0.00,,---,0.00,VWS V14.01,2013-01-29 19:46:00,
2013-01-29 14:51:00,69.6,49.4,30.05,SSW,208,4.5,7.1,49,0.00,,---,0.00,VWS V14.01,2013-01-29 19:51:00,
2013-01-29 14:56:00,69.8,48.8,30.05,SW,214,11.0,11.0,47,0.00,,---,0.00,VWS V14.01,2013-01-29 19:56:00,
2013-01-29 14:58:00,69.8,48.8,30.05,South,170,8.4,9.1,47,0.00,,---,0.00,VWS V14.01,2013-01-29 19:58:00,
2013-01-29 15:03:00,69.8,48.8,30.05,SSE,154,5.8,5.8,47,0.00,,---,0.00,VWS V14.01,2013-01-29 20:03:00,
2013-01-29 15:08:00,69.8,48.8,30.05,SW,232,5.8,8.4,47,0.00,,---,0.00,VWS V14.01,2013-01-29 20:08:00,
2013-01-29 15:13:00,69.8,48.8,30.05,SSE,153,12.0,12.0,47,0.00,,---,0.00,VWS V14.01,2013-01-29 20:13:00,
2013-01-29 15:18:00,69.6,49.4,30.05,SW,224,7.1,7.1,49,0.00,,---,0.00,VWS V14.01,2013-01-29 20:18:00,
2013-01-29 15:24:00,69.6,48.7,30.05,SSE,150,6.5,7.8,47,0.00,,---,0.00,VWS V14.01,2013-01-29 20:24:00,
2013-01-29 15:29:00,69.3,48.3,30.05,SSE,150,9.7,9.7,47,0.00,,---,0.00,VWS V14.01,2013-01-29 20:29:00,
2013-01-29 15:34:00,68.9,48.0,30.05,SSE,147,9.1,15.2,47,0.00,,---,0.00,VWS V14.01,2013-01-29 20:34:00,
2013-01-29 15:39:00,68.5,47.7,30.05,South,185,7.8,12.0,47,0.00,,---,0.00,VWS V14.01,2013-01-29 20:39:00,
2013-01-29 15:44:00,68.4,47.5,30.05,South,186,8.4,9.1,47,0.00,,---,0.00,VWS V14.01,2013-01-29 20:44:00,
2013-01-29 15:49:00,68.2,47.3,30.05,South,185,7.1,15.9,47,0.00,,---,0.00,VWS V14.01,2013-01-29 20:49:00,
2013-01-29 15:54:00,68.0,47.2,30.05,SSE,164,10.4,15.9,47,0.00,,---,0.00,VWS V14.01,2013-01-29 20:54:00,
2013-01-29 15:59:00,67.8,47.0,30.05,South,169,5.8,5.8,47,0.00,,---,0.00,VWS V14.01,2013-01-29 20:59:00,
2013-01-29 16:05:00,67.8,47.0,30.05,SE,127,5.8,5.8,47,0.00,,---,0.00,VWS V14.01,2013-01-29 21:05:00,
2013-01-29 16:10:00,67.6,46.9,30.05,SSW,206,9.1,19.1,47,0.00,,---,0.00,VWS V14.01,2013-01-29 21:10:00,
2013-01-29 16:15:00,67.5,46.7,30.05,SSW,200,8.4,9.1,47,0.00,,---,0.00,VWS V14.01,2013-01-29 21:15:00,
2013-01-29 16:20:00,67.3,46.5,30.05,South,173,7.8,11.7,47,0.00,,---,0.00,VWS V14.01,2013-01-29 21:20:00,
2013-01-29 16:25:00,67.1,46.4,30.05,SE,146,9.1,9.1,47,0.00,,---,0.00,VWS V14.01,2013-01-29 21:25:00,
2013-01-29 16:30:00,66.9,46.2,30.05,SE,145,5.2,9.1,47,0.00,,---,0.00,VWS V14.01,2013-01-29 21:30:00,
2013-01-29 16:35:00,66.6,45.9,30.05,SSW,197,5.8,5.8,47,0.00,,---,0.00,VWS V14.01,2013-01-29 21:35:00,
2013-01-29 16:40:00,66.4,45.7,30.05,SSE,153,5.2,9.1,47,0.00,,---,0.00,VWS V14.01,2013-01-29 21:40:00,
2013-01-29 16:46:00,66.2,45.5,30.05,SSW,194,4.5,9.1,47,0.00,,---,0.00,VWS V14.01,2013-01-29 21:46:00,
2013-01-29 16:51:00,66.0,45.4,30.05,SE,139,7.1,8.4,47,0.00,,---,0.00,VWS V14.01,2013-01-29 21:51:00,
2013-01-29 16:56:00,65.8,45.2,30.05,SE,142,5.8,5.8,47,0.00,,---,0.00,VWS V14.01,2013-01-29 21:56:00,
2013-01-29 17:01:00,65.8,45.2,30.02,South,182,8.4,8.4,47,0.00,,---,0.00,VWS V14.01,2013-01-29 22:01:00,
2013-01-29 17:06:00,65.8,45.2,30.02,SSE,165,11.0,12.6,47,0.00,,---,0.00,VWS V14.01,2013-01-29 22:06:00,
2013-01-29 17:11:00,65.7,45.0,30.02,SSE,160,8.4,11.0,47,0.00,,---,0.00,VWS V14.01,2013-01-29 22:11:00,
2013-01-29 17:16:00,65.5,44.9,30.02,SSE,154,5.2,9.1,47,0.00,,---,0.00,VWS V14.01,2013-01-29 22:16:00,
2013-01-29 17:21:00,65.3,44.7,30.02,SW,214,15.2,15.2,47,0.00,,---,0.00,VWS V14.01,2013-01-29 22:21:00,
2013-01-29 17:26:00,65.1,44.6,30.02,SSE,160,7.1,10.4,47,0.00,,---,0.00,VWS V14.01,2013-01-29 22:26:00,
2013-01-29 17:31:00,64.9,44.4,30.02,SSE,166,12.0,14.6,47,0.00,,---,0.00,VWS V14.01,2013-01-29 22:31:00,
2013-01-29 17:37:00,64.8,44.2,30.02,SSE,160,5.8,9.1,47,0.00,,---,0.00,VWS V14.01,2013-01-29 22:37:00,
2013-01-29 17:42:00,64.8,44.2,30.02,South,173,5.8,11.7,47,0.00,,---,0.00,VWS V14.01,2013-01-29 22:42:00,
2013-01-29 17:47:00,64.6,44.1,30.02,South,176,8.4,8.4,47,0.00,,---,0.00,VWS V14.01,2013-01-29 22:47:00,
2013-01-29 17:52:00,64.4,43.9,30.02,SSE,149,5.2,5.8,47,0.00,,---,0.00,VWS V14.01,2013-01-29 22:52:00,
2013-01-29 17:57:00,64.2,43.7,30.02,SSE,161,3.9,5.8,47,0.00,,---,0.00,VWS V14.01,2013-01-29 22:57:00,
2013-01-29 18:02:00,64.2,43.7,30.02,South,173,4.5,4.5,47,0.00,,---,0.00,VWS V14.01,2013-01-29 23:02:00,
2013-01-29 18:08:00,64.0,43.6,30.02,South,172,5.8,5.8,47,0.00,,---,0.00,VWS V14.01,2013-01-29 23:08:00,
2013-01-29 18:13:00,63.9,43.4,30.02,South,181,7.1,11.7,47,0.00,,---,0.00,VWS V14.01,2013-01-29 23:13:00,
2013-01-29 18:18:00,63.7,43.2,30.02,SSW,193,0.0,5.2,47,0.00,,---,0.00,VWS V14.01,2013-01-29 23:18:00,
2013-01-29 18:23:00,63.5,43.1,30.02,SSE,156,4.5,7.8,47,0.00,,---,0.00,VWS V14.01,2013-01-29 23:23:00,
2013-01-29 18:28:00,63.5,43.1,30.02,SSW,197,7.8,7.8,47,0.00,,---,0.00,VWS V14.01,2013-01-29 23:28:00,
2013-01-29 18:33:00,63.5,43.1,30.02,South,171,4.5,5.8,47,0.00,,---,0.00,VWS V14.01,2013-01-29 23:33:00,
2013-01-29 18:38:00,63.3,42.9,30.02,South,191,5.8,5.8,47,0.00,,---,0.00,VWS V14.01,2013-01-29 23:38:00,
2013-01-29 18:43:00,63.1,42.8,30.02,SSE,165,3.9,5.2,47,0.00,,---,0.00,VWS V14.01,2013-01-29 23:43:00,
2013-01-29 18:49:00,63.0,42.6,30.02,South,181,3.2,3.9,47,0.00,,---,0.00,VWS V14.01,2013-01-29 23:49:00,
2013-01-29 18:54:00,62.8,42.4,30.02,SSW,200,0.0,5.2,47,0.00,,---,0.00,VWS V14.01,2013-01-29 23:54:00,
2013-01-29 18:59:00,62.6,42.2,30.02,SSE,168,7.1,7.1,47,0.00,,---,0.00,VWS V14.01,2013-01-29 23:59:00,
2013-01-29 19:04:00,62.2,42.7,30.02,South,182,5.8,5.8,49,0.00,,---,0.00,VWS V14.01,2013-01-30 00:04:00,
2013-01-29 19:09:00,62.1,42.5,30.02,South,184,0.0,5.8,49,0.00,,---,0.00,VWS V14.01,2013-01-30 00:09:00,
2013-01-29 19:14:00,62.2,42.7,30.02,SSE,156,5.8,7.8,49,0.00,,---,0.00,VWS V14.01,2013-01-30 00:14:00,
2013-01-29 19:19:00,62.2,42.7,30.02,South,184,14.6,17.8,49,0.00,,---,0.00,VWS V14.01,2013-01-30 00:19:00,
2013-01-29 19:24:00,62.4,42.8,30.02,South,170,8.4,11.7,49,0.00,,---,0.00,VWS V14.01,2013-01-30 00:24:00,
2013-01-29 19:30:00,62.6,42.2,30.02,SSE,157,11.7,17.8,47,0.00,,---,0.00,VWS V14.01,2013-01-30 00:30:00,
2013-01-29 19:35:00,62.6,42.2,30.02,SSE,159,8.4,11.0,47,0.00,,---,0.00,VWS V14.01,2013-01-30 00:35:00,
2013-01-29 19:40:00,62.4,42.8,30.02,SSE,167,9.1,11.7,49,0.00,,---,0.00,VWS V14.01,2013-01-30 00:40:00,
2013-01-29 19:45:00,62.2,42.7,30.02,South,189,7.1,12.0,49,0.00,,---,0.00,VWS V14.01,2013-01-30 00:45:00,
2013-01-29 19:50:00,61.9,42.3,30.02,South,173,9.1,12.0,49,0.00,,---,0.00,VWS V14.01,2013-01-30 00:50:00,
2013-01-29 19:55:00,61.7,41.4,30.02,SSE,162,5.2,8.4,47,0.00,,---,0.00,VWS V14.01,2013-01-30 00:55:00,
2013-01-29 20:01:00,61.5,41.3,30.02,South,191,7.8,12.0,47,0.00,,---,0.00,VWS V14.01,2013-01-30 01:01:00,
2013-01-29 20:06:00,61.5,41.3,30.02,South,183,7.8,9.1,47,0.00,,---,0.00,VWS V14.01,2013-01-30 01:06:00,
2013-01-29 20:11:00,61.3,41.1,30.02,SSW,200,6.5,8.4,47,0.00,,---,0.00,VWS V14.01,2013-01-30 01:11:00,
2013-01-29 20:16:00,61.3,41.1,30.02,South,182,4.5,5.8,47,0.00,,---,0.00,VWS V14.01,2013-01-30 01:16:00,
2013-01-29 20:21:00,61.0,40.8,30.02,SE,141,4.5,5.2,47,0.00,,---,0.00,VWS V14.01,2013-01-30 01:21:00,
2013-01-29 20:26:00,60.6,41.2,30.02,SSW,195,0.0,0.0,49,0.00,,---,0.00,VWS V14.01,2013-01-30 01:26:00,
2013-01-29 20:31:00,60.4,41.0,30.02,South,184,0.0,0.0,49,0.00,,---,0.00,VWS V14.01,2013-01-30 01:31:00,
2013-01-29 20:37:00,59.9,40.5,30.02,SSW,205,4.5,4.5,49,0.00,,---,0.00,VWS V14.01,2013-01-30 01:37:00,
2013-01-29 20:42:00,59.4,40.0,30.05,SSE,167,0.0,0.0,49,0.00,,---,0.00,VWS V14.01,2013-01-30 01:42:00,
2013-01-29 20:47:00,59.0,39.7,30.05,SSE,148,8.4,8.4,49,0.00,,---,0.00,VWS V14.01,2013-01-30 01:47:00,
2013-01-29 20:52:00,58.5,39.2,30.05,SSW,200,4.5,4.5,49,0.00,,---,0.00,VWS V14.01,2013-01-30 01:52:00,
2013-01-29 20:57:00,58.1,38.9,30.02,SSE,154,5.8,5.8,49,0.00,,---,0.00,VWS V14.01,2013-01-30 01:57:00,
2013-01-29 21:02:00,57.7,39.3,30.02,SSE,162,4.5,5.2,50,0.00,,---,0.00,VWS V14.01,2013-01-30 02:02:00,
2013-01-29 21:07:00,57.6,39.1,30.02,SSE,157,4.5,7.1,50,0.00,,---,0.00,VWS V14.01,2013-01-30 02:07:00,
2013-01-29 21:13:00,57.7,39.3,30.02,SSE,149,5.2,8.4,50,0.00,,---,0.00,VWS V14.01,2013-01-30 02:13:00,
2013-01-29 21:18:00,58.1,39.6,30.02,SSE,164,3.9,4.5,50,0.00,,---,0.00,VWS V14.01,2013-01-30 02:18:00,
2013-01-29 21:23:00,58.3,40.5,30.02,SSE,165,5.2,5.8,51,0.00,,---,0.00,VWS V14.01,2013-01-30 02:23:00,
2013-01-29 21:28:00,58.3,40.5,30.02,SSE,158,3.9,4.5,51,0.00,,---,0.00,VWS V14.01,2013-01-30 02:28:00,
2013-01-29 21:33:00,58.3,40.5,30.02,SSE,149,4.5,7.1,51,0.00,,---,0.00,VWS V14.01,2013-01-30 02:33:00,
2013-01-29 21:38:00,58.1,40.3,30.02,SSE,152,9.1,9.1,51,0.00,,---,0.00,VWS V14.01,2013-01-30 02:38:00,
2013-01-29 21:43:00,58.1,40.3,30.02,SSE,167,4.5,7.1,51,0.00,,---,0.00,VWS V14.01,2013-01-30 02:43:00,
2013-01-29 21:49:00,58.1,40.3,30.02,SSE,158,4.5,5.8,51,0.00,,---,0.00,VWS V14.01,2013-01-30 02:49:00,
2013-01-29 21:54:00,57.7,40.7,30.02,SSE,149,4.5,5.8,53,0.00,,---,0.00,VWS V14.01,2013-01-30 02:54:00,
2013-01-29 21:59:00,57.6,40.5,30.02,South,172,3.2,5.2,53,0.00,,---,0.00,VWS V14.01,2013-01-30 02:59:00,
2013-01-29 22:04:00,57.4,40.3,30.02,South,177,0.0,0.0,53,0.00,,---,0.00,VWS V14.01,2013-01-30 03:04:00,
2013-01-29 22:09:00,57.2,40.2,30.02,South,169,3.9,5.2,53,0.00,,---,0.00,VWS V14.01,2013-01-30 03:09:00,
2013-01-29 22:15:00,56.8,40.5,30.02,SSE,154,4.5,5.8,54,0.00,,---,0.00,VWS V14.01,2013-01-30 03:15:00,
2013-01-29 22:20:00,56.8,40.5,30.02,South,174,3.9,3.9,54,0.00,,---,0.00,VWS V14.01,2013-01-30 03:20:00,
2013-01-29 22:25:00,56.8,41.1,30.02,SSE,162,7.8,9.1,56,0.00,,---,0.00,VWS V14.01,2013-01-30 03:25:00,
2013-01-29 22:30:00,57.4,41.6,30.02,SSE,149,9.1,9.1,56,0.00,,---,0.00,VWS V14.01,2013-01-30 03:30:00,
2013-01-29 22:35:00,58.1,43.0,30.02,SSE,147,9.1,9.1,57,0.00,,---,0.00,VWS V14.01,2013-01-30 03:35:00,
2013-01-29 22:40:00,58.5,43.3,30.02,SSW,192,7.8,8.4,57,0.00,,---,0.00,VWS V14.01,2013-01-30 03:40:00,
2013-01-29 22:46:00,59.0,43.2,30.02,SSE,155,9.1,11.0,56,0.00,,---,0.00,VWS V14.01,2013-01-30 03:46:00,
2013-01-29 22:51:00,59.2,43.3,30.02,South,187,7.8,12.0,56,0.00,,---,0.00,VWS V14.01,2013-01-30 03:51:00,
2013-01-29 22:56:00,59.4,43.5,30.02,SSW,192,7.8,7.8,56,0.00,,---,0.00,VWS V14.01,2013-01-30 03:56:00,
2013-01-29 23:01:00,59.4,43.5,29.99,South,182,11.7,11.7,56,0.00,,---,0.00,VWS V14.01,2013-01-30 04:01:00,
2013-01-29 23:06:00,59.2,43.3,29.99,SE,136,5.8,8.4,56,0.00,,---,0.00,VWS V14.01,2013-01-30 04:06:00,
2013-01-29 23:11:00,59.2,43.3,29.99,SE,142,7.8,7.8,56,0.00,,---,0.00,VWS V14.01,2013-01-30 04:11:00,
2013-01-29 23:16:00,59.0,43.2,29.99,SE,139,7.1,11.7,56,0.00,,---,0.00,VWS V14.01,2013-01-30 04:16:00,
2013-01-29 23:21:00,59.0,43.2,29.99,SSE,149,4.5,7.8,56,0.00,,---,0.00,VWS V14.01,2013-01-30 04:21:00,
2013-01-29 23:26:00,58.8,43.6,29.99,SSE,156,3.9,8.4,57,0.00,,---,0.00,VWS V14.01,2013-01-30 04:26:00,
2013-01-29 23:31:00,58.6,43.5,29.99,South,181,5.2,5.2,57,0.00,,---,0.00,VWS V14.01,2013-01-30 04:31:00,
2013-01-29 23:36:00,58.5,43.3,29.99,South,182,5.2,7.1,57,0.00,,---,0.00,VWS V14.01,2013-01-30 04:36:00,
2013-01-29 23:42:00,57.9,42.2,29.99,SSW,197,5.2,5.2,56,0.00,,---,0.00,VWS V14.01,2013-01-30 04:42:00,
2013-01-29 23:47:00,57.4,41.6,29.99,SSE,149,7.8,8.4,56,0.00,,---,0.00,VWS V14.01,2013-01-30 04:47:00,
2013-01-29 23:52:00,57.2,42.1,29.99,SSE,153,4.5,7.1,57,0.00,,---,0.00,VWS V14.01,2013-01-30 04:52:00,
2013-01-29 23:57:00,57.2,42.1,29.99,SSE,148,9.1,9.1,57,0.00,,---,0.00,VWS V14.01,2013-01-30 04:57:00,